sensor_id;sensor_type;location;lat;lon;timestamp;pressure;altitude;pressure_sealevel;temperature;humidity
23659;BME280;12006;42.666;23.326;2023-07-13T00:01:44;-24536.16;;;22.10;100.00
23659;BME280;12006;42.666;23.326;2023-07-13T00:04:11;-24534.28;;;22.04;100.00
23659;BME280;12006;42.666;23.326;2023-07-13T00:06:37;-24532.41;;;21.99;100.00
23659;BME280;12006;42.666;23.326;2023-07-13T00:09:02;-24531.72;;;21.97;100.00
23659;BME280;12006;42.666;23.326;2023-07-13T00:11:28;-24531.22;;;21.95;100.00
23659;BME280;12006;42.666;23.326;2023-07-13T00:13:53;-24529.69;;;21.91;100.00
23659;BME280;12006;42.666;23.326;2023-07-13T00:16:19;-24527.97;;;21.86;100.00
23659;BME280;12006;42.666;23.326;2023-07-13T00:18:45;-24529.84;;;21.92;100.00
23659;BME280;12006;42.666;23.326;2023-07-13T00:21:12;-24527.97;;;21.86;100.00
23659;BME280;12006;42.666;23.326;2023-07-13T00:23:39;-24527.13;;;21.84;100.00
23659;BME280;12006;42.666;23.326;2023-07-13T00:26:08;-24523.38;;;21.73;100.00
23659;BME280;12006;42.666;23.326;2023-07-13T00:28:35;-24521.34;;;21.67;100.00
23659;BME280;12006;42.666;23.326;2023-07-13T00:31:01;-24519.97;;;21.63;100.00
23659;BME280;12006;42.666;23.326;2023-07-13T00:33:29;-24520.66;;;21.65;100.00
23659;BME280;12006;42.666;23.326;2023-07-13T00:35:55;-24521.16;;;21.66;100.00
23659;BME280;12006;42.666;23.326;2023-07-13T00:38:22;-24521.84;;;21.68;100.00
23659;BME280;12006;42.666;23.326;2023-07-13T00:40:48;-24515.88;;;21.51;100.00
23659;BME280;12006;42.666;23.326;2023-07-13T00:43:19;-24518.59;;;21.59;100.00
23659;BME280;12006;42.666;23.326;2023-07-13T00:48:13;-24511.44;;;21.38;100.00
23659;BME280;12006;42.666;23.326;2023-07-13T00:50:40;-24513.50;;;21.44;100.00
23659;BME280;12006;42.666;23.326;2023-07-13T00:53:06;-24512.47;;;21.41;100.00
23659;BME280;12006;42.666;23.326;2023-07-13T00:55:33;-24513.16;;;21.43;100.00
23659;BME280;12006;42.666;23.326;2023-07-13T00:57:58;-24512.97;;;21.42;100.00
23659;BME280;12006;42.666;23.326;2023-07-13T01:00:25;-24512.47;;;21.41;100.00
23659;BME280;12006;42.666;23.326;2023-07-13T01:02:51;-24511.59;;;21.38;100.00
23659;BME280;12006;42.666;23.326;2023-07-13T01:05:19;-24510.06;;;21.34;100.00
23659;BME280;12006;42.666;23.326;2023-07-13T01:07:47;-24509.06;;;21.31;100.00
23659;BME280;12006;42.666;23.326;2023-07-13T01:10:14;-24506.50;;;21.24;100.00
23659;BME280;12006;42.666;23.326;2023-07-13T01:12:40;-24504.63;;;21.18;100.00
23659;BME280;12006;42.666;23.326;2023-07-13T01:15:32;-24506.00;;;21.22;100.00
23659;BME280;12006;42.666;23.326;2023-07-13T01:17:51;-24504.28;;;21.17;100.00
23659;BME280;12006;42.666;23.326;2023-07-13T01:20:16;-24499.34;;;21.03;100.00
23659;BME280;12006;42.666;23.326;2023-07-13T01:22:42;-24499.16;;;21.02;100.00
23659;BME280;12006;42.666;23.326;2023-07-13T01:25:08;-24500.19;;;21.05;100.00
23659;BME280;12006;42.666;23.326;2023-07-13T01:27:33;-24499.84;;;21.04;100.00
23659;BME280;12006;42.666;23.326;2023-07-13T01:29:59;-24500.19;;;21.05;100.00
23659;BME280;12006;42.666;23.326;2023-07-13T01:32:29;-24500.34;;;21.06;100.00
23659;BME280;12006;42.666;23.326;2023-07-13T01:34:56;-24496.09;;;20.93;100.00
23659;BME280;12006;42.666;23.326;2023-07-13T01:37:23;-24499.84;;;21.04;100.00
23659;BME280;12006;42.666;23.326;2023-07-13T01:39:49;-24497.28;;;20.97;100.00
23659;BME280;12006;42.666;23.326;2023-07-13T01:42:15;-24498.16;;;20.99;100.00
23659;BME280;12006;42.666;23.326;2023-07-13T01:44:40;-24495.06;;;20.90;100.00
23659;BME280;12006;42.666;23.326;2023-07-13T01:47:06;-24495.06;;;20.90;100.00
23659;BME280;12006;42.666;23.326;2023-07-13T01:49:31;-24496.09;;;20.93;100.00
23659;BME280;12006;42.666;23.326;2023-07-13T01:51:57;-24495.41;;;20.91;100.00
23659;BME280;12006;42.666;23.326;2023-07-13T01:54:22;-24493.72;;;20.86;100.00
23659;BME280;12006;42.666;23.326;2023-07-13T01:56:48;-24493.03;;;20.84;100.00
23659;BME280;12006;42.666;23.326;2023-07-13T01:59:13;-24488.59;;;20.71;100.00
23659;BME280;12006;42.666;23.326;2023-07-13T02:01:38;-24488.75;;;20.72;100.00
23659;BME280;12006;42.666;23.326;2023-07-13T02:04:04;-24485.84;;;20.64;100.00
23659;BME280;12006;42.666;23.326;2023-07-13T02:06:30;-24488.25;;;20.70;100.00
23659;BME280;12006;42.666;23.326;2023-07-13T02:08:55;-24487.91;;;20.69;100.00
23659;BME280;12006;42.666;23.326;2023-07-13T02:11:20;-24486.03;;;20.64;100.00
23659;BME280;12006;42.666;23.326;2023-07-13T02:13:46;-24487.91;;;20.69;100.00
23659;BME280;12006;42.666;23.326;2023-07-13T02:16:12;-24482.44;;;20.54;100.00
23659;BME280;12006;42.666;23.326;2023-07-13T02:18:37;-24486.53;;;20.66;100.00
23659;BME280;12006;42.666;23.326;2023-07-13T02:21:03;-24482.97;;;20.55;100.00
23659;BME280;12006;42.666;23.326;2023-07-13T02:23:28;-24484.81;;;20.61;100.00
23659;BME280;12006;42.666;23.326;2023-07-13T02:25:58;-24484.50;;;20.60;100.00
23659;BME280;12006;42.666;23.326;2023-07-13T02:28:24;-24483.63;;;20.57;100.00
23659;BME280;12006;42.666;23.326;2023-07-13T02:30:49;-24482.09;;;20.53;100.00
23659;BME280;12006;42.666;23.326;2023-07-13T02:33:15;-24482.44;;;20.54;100.00
23659;BME280;12006;42.666;23.326;2023-07-13T02:35:41;-24482.09;;;20.53;100.00
23659;BME280;12006;42.666;23.326;2023-07-13T02:38:06;-24484.81;;;20.61;100.00
23659;BME280;12006;42.666;23.326;2023-07-13T02:40:32;-24485.00;;;20.61;100.00
23659;BME280;12006;42.666;23.326;2023-07-13T02:43:01;-24481.41;;;20.51;100.00
23659;BME280;12006;42.666;23.326;2023-07-13T02:45:27;-24481.75;;;20.52;100.00
23659;BME280;12006;42.666;23.326;2023-07-13T02:47:53;-24483.97;;;20.58;100.00
23659;BME280;12006;42.666;23.326;2023-07-13T02:50:19;-24480.41;;;20.48;100.00
23659;BME280;12006;42.666;23.326;2023-07-13T02:52:44;-24477.31;;;20.39;100.00
23659;BME280;12006;42.666;23.326;2023-07-13T02:55:10;-24477.66;;;20.40;100.00
23659;BME280;12006;42.666;23.326;2023-07-13T02:57:35;-24477.66;;;20.40;100.00
23659;BME280;12006;42.666;23.326;2023-07-13T03:00:02;-24478.69;;;20.43;100.00
23659;BME280;12006;42.666;23.326;2023-07-13T03:02:31;-24474.09;;;20.29;100.00
23659;BME280;12006;42.666;23.326;2023-07-13T03:04:57;-24471.88;;;20.23;100.00
23659;BME280;12006;42.666;23.326;2023-07-13T03:07:22;-24473.91;;;20.29;100.00
23659;BME280;12006;42.666;23.326;2023-07-13T03:09:48;-24474.25;;;20.30;100.00
23659;BME280;12006;42.666;23.326;2023-07-13T03:12:13;-24474.25;;;20.30;100.00
23659;BME280;12006;42.666;23.326;2023-07-13T03:14:38;-24472.03;;;20.23;100.00
23659;BME280;12006;42.666;23.326;2023-07-13T03:17:04;-24474.25;;;20.30;100.00
23659;BME280;12006;42.666;23.326;2023-07-13T03:19:29;-24474.59;;;20.31;100.00
23659;BME280;12006;42.666;23.326;2023-07-13T03:21:55;-24474.25;;;20.30;100.00
23659;BME280;12006;42.666;23.326;2023-07-13T03:24:20;-24472.22;;;20.24;100.00
23659;BME280;12006;42.666;23.326;2023-07-13T03:26:45;-24477.66;;;20.40;100.00
23659;BME280;12006;42.666;23.326;2023-07-13T03:29:11;-24478.69;;;20.43;100.00
23659;BME280;12006;42.666;23.326;2023-07-13T03:31:37;-24476.31;;;20.36;100.00
23659;BME280;12006;42.666;23.326;2023-07-13T03:34:03;-24477.31;;;20.39;100.00
23659;BME280;12006;42.666;23.326;2023-07-13T03:36:29;-24479.88;;;20.46;100.00
23659;BME280;12006;42.666;23.326;2023-07-13T03:38:57;-24478.88;;;20.43;100.00
23659;BME280;12006;42.666;23.326;2023-07-13T03:41:24;-24481.41;;;20.51;100.00
23659;BME280;12006;42.666;23.326;2023-07-13T03:43:50;-24482.09;;;20.53;100.00
23659;BME280;12006;42.666;23.326;2023-07-13T03:46:16;-24483.63;;;20.57;100.00
23659;BME280;12006;42.666;23.326;2023-07-13T03:48:44;-24485.00;;;20.61;100.00
23659;BME280;12006;42.666;23.326;2023-07-13T03:51:10;-24489.28;;;20.73;100.00
23659;BME280;12006;42.666;23.326;2023-07-13T03:53:38;-24491.31;;;20.79;100.00
23659;BME280;12006;42.666;23.326;2023-07-13T03:56:04;-24490.28;;;20.76;100.00
23659;BME280;12006;42.666;23.326;2023-07-13T03:58:31;-24492.50;;;20.83;100.00
23659;BME280;12006;42.666;23.326;2023-07-13T04:00:57;-24497.13;;;20.96;100.00
23659;BME280;12006;42.666;23.326;2023-07-13T04:03:24;-24500.00;;;21.05;100.00
23659;BME280;12006;42.666;23.326;2023-07-13T04:05:49;-24499.84;;;21.04;100.00
23659;BME280;12006;42.666;23.326;2023-07-13T04:08:15;-24502.91;;;21.13;100.00
23659;BME280;12006;42.666;23.326;2023-07-13T04:10:40;-24504.97;;;21.19;100.00
23659;BME280;12006;42.666;23.326;2023-07-13T04:13:07;-24508.38;;;21.29;100.00
23659;BME280;12006;42.666;23.326;2023-07-13T04:15:32;-24512.13;;;21.40;100.00
23659;BME280;12006;42.666;23.326;2023-07-13T04:17:58;-24514.00;;;21.45;100.00
23659;BME280;12006;42.666;23.326;2023-07-13T04:20:25;-24516.22;;;21.52;100.00
23659;BME280;12006;42.666;23.326;2023-07-13T04:22:51;-24519.78;;;21.62;100.00
23659;BME280;12006;42.666;23.326;2023-07-13T04:25:18;-24525.75;;;21.80;100.00
23659;BME280;12006;42.666;23.326;2023-07-13T04:27:44;-24529.50;;;21.91;100.00
23659;BME280;12006;42.666;23.326;2023-07-13T04:30:09;-24532.22;;;21.98;100.00
23659;BME280;12006;42.666;23.326;2023-07-13T04:32:34;-24534.47;;;22.05;100.00
23659;BME280;12006;42.666;23.326;2023-07-13T04:35:02;-24534.78;;;22.06;100.00
23659;BME280;12006;42.666;23.326;2023-07-13T04:37:29;-24540.41;;;22.22;100.00
23659;BME280;12006;42.666;23.326;2023-07-13T04:39:54;-24543.31;;;22.31;100.00
23659;BME280;12006;42.666;23.326;2023-07-13T04:42:20;-24548.59;;;22.46;100.00
23659;BME280;12006;42.666;23.326;2023-07-13T04:44:49;-24551.50;;;22.55;100.00
23659;BME280;12006;42.666;23.326;2023-07-13T04:47:15;-24557.47;;;22.72;100.00
23659;BME280;12006;42.666;23.326;2023-07-13T04:49:40;-24560.88;;;22.82;100.00
23659;BME280;12006;42.666;23.326;2023-07-13T04:52:06;-24564.09;;;22.91;100.00
23659;BME280;12006;42.666;23.326;2023-07-13T04:54:33;-24569.22;;;23.06;100.00
23659;BME280;12006;42.666;23.326;2023-07-13T04:56:58;-24571.09;;;23.12;100.00
23659;BME280;12006;42.666;23.326;2023-07-13T04:59:24;-24574.50;;;23.21;100.00
23659;BME280;12006;42.666;23.326;2023-07-13T05:01:49;-24578.06;;;23.32;100.00
23659;BME280;12006;42.666;23.326;2023-07-13T05:04:15;-24577.72;;;23.31;100.00
23659;BME280;12006;42.666;23.326;2023-07-13T05:06:40;-24581.28;;;23.41;100.00
23659;BME280;12006;42.666;23.326;2023-07-13T05:09:05;-24583.34;;;23.47;100.00
23659;BME280;12006;42.666;23.326;2023-07-13T05:11:32;-24583.00;;;23.46;100.00
23659;BME280;12006;42.666;23.326;2023-07-13T05:13:57;-24584.34;;;23.50;100.00
23659;BME280;12006;42.666;23.326;2023-07-13T05:16:23;-24589.47;;;23.65;100.00
23659;BME280;12006;42.666;23.326;2023-07-13T05:18:48;-24593.22;;;23.76;100.00
23659;BME280;12006;42.666;23.326;2023-07-13T05:21:14;-24592.88;;;23.75;100.00
23659;BME280;12006;42.666;23.326;2023-07-13T05:23:40;-24597.47;;;23.88;100.00
23659;BME280;12006;42.666;23.326;2023-07-13T05:26:08;-24598.66;;;23.92;100.00
23659;BME280;12006;42.666;23.326;2023-07-13T05:28:34;-24601.06;;;23.99;100.00
23659;BME280;12006;42.666;23.326;2023-07-13T05:31:00;-24603.78;;;24.07;100.00
23659;BME280;12006;42.666;23.326;2023-07-13T05:33:26;-24606.66;;;24.15;100.00
23659;BME280;12006;42.666;23.326;2023-07-13T05:35:51;-24608.19;;;24.20;100.00
23659;BME280;12006;42.666;23.326;2023-07-13T05:38:17;-24612.97;;;24.34;100.00
23659;BME280;12006;42.666;23.326;2023-07-13T05:40:46;-24616.03;;;24.43;100.00
23659;BME280;12006;42.666;23.326;2023-07-13T05:43:12;-24618.75;;;24.50;100.00
23659;BME280;12006;42.666;23.326;2023-07-13T05:45:38;-24622.47;;;24.61;100.00
23659;BME280;12006;42.666;23.326;2023-07-13T05:48:03;-24624.88;;;24.68;100.00
23659;BME280;12006;42.666;23.326;2023-07-13T05:50:29;-24630.81;;;24.86;100.00
23659;BME280;12006;42.666;23.326;2023-07-13T05:52:54;-24631.84;;;24.89;100.00
23659;BME280;12006;42.666;23.326;2023-07-13T05:55:20;-24634.38;;;24.96;100.00
23659;BME280;12006;42.666;23.326;2023-07-13T05:57:46;-24639.16;;;25.10;100.00
23659;BME280;12006;42.666;23.326;2023-07-13T06:00:12;-24642.22;;;25.19;100.00
23659;BME280;12006;42.666;23.326;2023-07-13T06:02:38;-24647.66;;;25.35;100.00
23659;BME280;12006;42.666;23.326;2023-07-13T06:05:03;-24653.44;;;25.52;100.00
23659;BME280;12006;42.666;23.326;2023-07-13T06:07:29;-24659.53;;;25.69;100.00
23659;BME280;12006;42.666;23.326;2023-07-13T06:09:54;-24660.91;;;25.73;100.00
23659;BME280;12006;42.666;23.326;2023-07-13T06:12:20;-24661.94;;;25.76;100.00
23659;BME280;12006;42.666;23.326;2023-07-13T06:14:45;-24663.81;;;25.82;100.00
23659;BME280;12006;42.666;23.326;2023-07-13T06:17:10;-24664.66;;;25.84;100.00
23659;BME280;12006;42.666;23.326;2023-07-13T06:19:36;-24666.19;;;25.89;100.00
23659;BME280;12006;42.666;23.326;2023-07-13T06:22:01;-24668.06;;;25.94;100.00
23659;BME280;12006;42.666;23.326;2023-07-13T06:24:27;-24663.28;;;25.80;100.00
23659;BME280;12006;42.666;23.326;2023-07-13T06:26:52;-24658.69;;;25.67;100.00
23659;BME280;12006;42.666;23.326;2023-07-13T06:29:17;-24669.41;;;25.98;100.00
23659;BME280;12006;42.666;23.326;2023-07-13T06:31:43;-24672.47;;;26.07;100.00
23659;BME280;12006;42.666;23.326;2023-07-13T06:34:08;-24677.22;;;26.21;100.00
23659;BME280;12006;42.666;23.326;2023-07-13T06:36:34;-24679.25;;;26.27;100.00
23659;BME280;12006;42.666;23.326;2023-07-13T06:39:01;-24678.25;;;26.24;100.00
23659;BME280;12006;42.666;23.326;2023-07-13T06:41:27;-24681.28;;;26.33;100.00
23659;BME280;12006;42.666;23.326;2023-07-13T06:43:52;-24684.03;;;26.41;100.00
23659;BME280;12006;42.666;23.326;2023-07-13T06:46:21;-24686.06;;;26.47;100.00
23659;BME280;12006;42.666;23.326;2023-07-13T06:48:46;-24688.44;;;26.54;100.00
23659;BME280;12006;42.666;23.326;2023-07-13T06:51:12;-24693.53;;;26.69;100.00
23659;BME280;12006;42.666;23.326;2023-07-13T06:53:37;-24694.88;;;26.73;100.00
23659;BME280;12006;42.666;23.326;2023-07-13T06:56:03;-24698.78;;;26.84;100.00
23659;BME280;12006;42.666;23.326;2023-07-13T06:58:28;-24703.38;;;26.97;100.00
23659;BME280;12006;42.666;23.326;2023-07-13T07:00:54;-24703.38;;;26.97;100.00
23659;BME280;12006;42.666;23.326;2023-07-13T07:03:19;-24702.34;;;26.94;100.00
23659;BME280;12006;42.666;23.326;2023-07-13T07:05:45;-24705.41;;;27.03;100.00
23659;BME280;12006;42.666;23.326;2023-07-13T07:08:11;-24705.94;;;27.05;100.00
23659;BME280;12006;42.666;23.326;2023-07-13T07:10:36;-24707.78;;;27.10;100.00
23659;BME280;12006;42.666;23.326;2023-07-13T07:13:02;-24708.66;;;27.13;100.00
23659;BME280;12006;42.666;23.326;2023-07-13T07:15:28;-24715.25;;;27.32;100.00
23659;BME280;12006;42.666;23.326;2023-07-13T07:17:54;-24715.94;;;27.34;100.00
23659;BME280;12006;42.666;23.326;2023-07-13T07:20:19;-24716.63;;;27.36;100.00
23659;BME280;12006;42.666;23.326;2023-07-13T07:22:45;-24715.25;;;27.32;100.00
23659;BME280;12006;42.666;23.326;2023-07-13T07:25:11;-24720.69;;;27.48;100.00
23659;BME280;12006;42.666;23.326;2023-07-13T07:27:37;-24724.75;;;27.60;100.00
23659;BME280;12006;42.666;23.326;2023-07-13T07:30:02;-24728.84;;;27.72;100.00
23659;BME280;12006;42.666;23.326;2023-07-13T07:32:29;-24730.38;;;27.76;100.00
23659;BME280;12006;42.666;23.326;2023-07-13T07:34:56;-24732.91;;;27.84;100.00
23659;BME280;12006;42.666;23.326;2023-07-13T07:37:21;-24735.28;;;27.91;100.00
23659;BME280;12006;42.666;23.326;2023-07-13T07:39:47;-24736.31;;;27.94;100.00
23659;BME280;12006;42.666;23.326;2023-07-13T07:42:13;-24739.34;;;28.03;100.00
23659;BME280;12006;42.666;23.326;2023-07-13T07:44:40;-24741.06;;;28.08;100.00
23659;BME280;12006;42.666;23.326;2023-07-13T07:47:06;-24745.13;;;28.19;100.00
23659;BME280;12006;42.666;23.326;2023-07-13T07:49:31;-24747.50;;;28.26;100.00
23659;BME280;12006;42.666;23.326;2023-07-13T07:51:57;-24749.53;;;28.32;100.00
23659;BME280;12006;42.666;23.326;2023-07-13T07:54:22;-24749.53;;;28.32;100.00
23659;BME280;12006;42.666;23.326;2023-07-13T07:56:47;-24750.88;;;28.36;100.00
23659;BME280;12006;42.666;23.326;2023-07-13T07:59:13;-24748.84;;;28.30;100.00
23659;BME280;12006;42.666;23.326;2023-07-13T08:01:38;-24752.94;;;28.42;100.00
23659;BME280;12006;42.666;23.326;2023-07-13T08:04:04;-24760.38;;;28.64;100.00
23659;BME280;12006;42.666;23.326;2023-07-13T08:06:31;-24763.78;;;28.74;100.00
23659;BME280;12006;42.666;23.326;2023-07-13T08:08:58;-24766.66;;;28.82;100.00
23659;BME280;12006;42.666;23.326;2023-07-13T08:11:24;-24769.88;;;28.92;100.00
23659;BME280;12006;42.666;23.326;2023-07-13T08:13:50;-24773.59;;;29.03;98.61
23659;BME280;12006;42.666;23.326;2023-07-13T08:16:15;-24777.00;;;29.13;97.44
23659;BME280;12006;42.666;23.326;2023-07-13T08:18:41;-24777.16;;;29.13;100.00
23659;BME280;12006;42.666;23.326;2023-07-13T08:21:07;-24780.38;;;29.23;100.00
23659;BME280;12006;42.666;23.326;2023-07-13T08:23:34;-24783.09;;;29.31;99.00
23659;BME280;12006;42.666;23.326;2023-07-13T08:26:00;-24783.28;;;29.31;97.25
23659;BME280;12006;42.666;23.326;2023-07-13T08:28:30;-24790.56;;;29.52;92.48
23659;BME280;12006;42.666;23.326;2023-07-13T08:31:00;-24798.69;;;29.76;90.50
23659;BME280;12006;42.666;23.326;2023-07-13T08:33:26;-24801.06;;;29.83;92.75
23659;BME280;12006;42.666;23.326;2023-07-13T08:35:51;-24805.13;;;29.95;93.97
23659;BME280;12006;42.666;23.326;2023-07-13T08:38:17;-24804.97;;;29.95;95.02
23659;BME280;12006;42.666;23.326;2023-07-13T08:40:45;-24810.88;;;30.12;94.11
23659;BME280;12006;42.666;23.326;2023-07-13T08:43:20;-24812.25;;;30.16;92.94
23659;BME280;12006;42.666;23.326;2023-07-13T08:49:04;-24823.59;;;30.49;90.18
23659;BME280;12006;42.666;23.326;2023-07-13T08:54:02;-24834.41;;;30.81;84.28
23659;BME280;12006;42.666;23.326;2023-07-13T08:56:31;-24841.69;;;31.02;85.80
23659;BME280;12006;42.666;23.326;2023-07-13T08:59:01;-24844.91;;;31.12;85.65
23659;BME280;12006;42.666;23.326;2023-07-13T09:04:16;-24858.28;;;31.51;92.98
23659;BME280;12006;42.666;23.326;2023-07-13T09:07:30;-24866.06;;;31.74;83.33
23659;BME280;12006;42.666;23.326;2023-07-13T09:15:47;-24885.66;;;32.31;78.47
23659;BME280;12006;42.666;23.326;2023-07-13T09:18:21;-24891.56;;;32.49;77.12
23659;BME280;12006;42.666;23.326;2023-07-13T09:20:53;-24901.03;;;32.76;75.84
23659;BME280;12006;42.666;23.326;2023-07-13T09:23:22;-24908.97;;;33.00;80.55
23659;BME280;12006;42.666;23.326;2023-07-13T09:25:52;-24912.00;;;33.09;76.14
23659;BME280;12006;42.666;23.326;2023-07-13T09:28:28;-24916.56;;;33.22;73.34
23659;BME280;12006;42.666;23.326;2023-07-13T09:33:25;-24923.31;;;33.42;73.15
23659;BME280;12006;42.666;23.326;2023-07-13T09:35:55;-24921.13;;;33.35;69.91
23659;BME280;12006;42.666;23.326;2023-07-13T09:38:22;-24923.84;;;33.43;71.31
23659;BME280;12006;42.666;23.326;2023-07-13T09:43:24;-24930.25;;;33.62;67.39
23659;BME280;12006;42.666;23.326;2023-07-13T09:45:50;-24935.31;;;33.77;68.98
23659;BME280;12006;42.666;23.326;2023-07-13T09:48:17;-24943.09;;;34.00;68.68
23659;BME280;12006;42.666;23.326;2023-07-13T09:50:44;-24949.16;;;34.18;67.56
23659;BME280;12006;42.666;23.326;2023-07-13T09:53:17;-24953.88;;;34.32;68.97
23659;BME280;12006;42.666;23.326;2023-07-13T09:55:45;-24956.22;;;34.39;65.92
23659;BME280;12006;42.666;23.326;2023-07-13T10:00:38;-24959.63;;;34.48;66.31
23659;BME280;12006;42.666;23.326;2023-07-13T10:03:25;-24966.19;;;34.68;63.18
23659;BME280;12006;42.666;23.326;2023-07-13T10:05:52;-24965.00;;;34.64;64.71
23659;BME280;12006;42.666;23.326;2023-07-13T10:08:26;-24965.00;;;34.64;61.91
23659;BME280;12006;42.666;23.326;2023-07-13T10:11:10;-24969.56;;;34.78;62.34
23659;BME280;12006;42.666;23.326;2023-07-13T10:13:37;-24970.22;;;34.80;63.03
23659;BME280;12006;42.666;23.326;2023-07-13T10:16:07;-24974.44;;;34.92;65.05
23659;BME280;12006;42.666;23.326;2023-07-13T10:18:43;-24981.88;;;35.14;61.76
23659;BME280;12006;42.666;23.326;2023-07-13T10:21:16;-24988.28;;;35.33;61.24
23659;BME280;12006;42.666;23.326;2023-07-13T10:23:45;-24988.09;;;35.32;61.46
23659;BME280;12006;42.666;23.326;2023-07-13T10:26:18;-24990.13;;;35.38;50.13
23659;BME280;12006;42.666;23.326;2023-07-13T10:28:46;-24983.06;;;35.17;47.02
23659;BME280;12006;42.666;23.326;2023-07-13T10:31:16;-24985.75;;;35.25;47.70
23659;BME280;12006;42.666;23.326;2023-07-13T10:33:42;-24980.84;;;35.11;42.83
23659;BME280;12006;42.666;23.326;2023-07-13T10:36:27;-24982.03;;;35.14;44.62
23659;BME280;12006;42.666;23.326;2023-07-13T10:38:55;-24982.38;;;35.15;45.38
23659;BME280;12006;42.666;23.326;2023-07-13T10:41:24;-24980.84;;;35.11;42.96
23659;BME280;12006;42.666;23.326;2023-07-13T10:43:53;-24978.00;;;35.03;42.88
23659;BME280;12006;42.666;23.326;2023-07-13T10:46:24;-24978.16;;;35.03;45.73
23659;BME280;12006;42.666;23.326;2023-07-13T10:48:56;-24983.06;;;35.17;44.94
23659;BME280;12006;42.666;23.326;2023-07-13T10:51:23;-24981.19;;;35.12;44.42
23659;BME280;12006;42.666;23.326;2023-07-13T10:54:18;-24978.50;;;35.04;42.96
23659;BME280;12006;42.666;23.326;2023-07-13T10:56:45;-24975.13;;;34.94;42.79
23659;BME280;12006;42.666;23.326;2023-07-13T10:59:15;-24973.09;;;34.88;41.74
23659;BME280;12006;42.666;23.326;2023-07-13T11:04:23;-24977.16;;;35.00;44.60
23659;BME280;12006;42.666;23.326;2023-07-13T11:07:09;-24987.59;;;35.31;41.86
23659;BME280;12006;42.666;23.326;2023-07-13T11:09:38;-24993.00;;;35.47;42.76
23659;BME280;12006;42.666;23.326;2023-07-13T11:12:25;-24998.06;;;35.62;41.57
23659;BME280;12006;42.666;23.326;2023-07-13T11:22:50;-24985.25;;;35.24;41.55
23659;BME280;12006;42.666;23.326;2023-07-13T11:25:26;-24986.09;;;35.26;43.66
23659;BME280;12006;42.666;23.326;2023-07-13T11:38:42;-25005.13;;;35.82;46.40
23659;BME280;12006;42.666;23.326;2023-07-13T11:41:18;-25006.47;;;35.86;42.67
23659;BME280;12006;42.666;23.326;2023-07-13T11:43:45;-25006.97;;;35.88;42.89
23659;BME280;12006;42.666;23.326;2023-07-13T11:48:46;-25012.69;;;36.05;43.03
23659;BME280;12006;42.666;23.326;2023-07-13T11:51:34;-25010.69;;;35.99;43.58
23659;BME280;12006;42.666;23.326;2023-07-13T11:54:05;-25012.19;;;36.03;43.62
23659;BME280;12006;42.666;23.326;2023-07-13T11:56:33;-25012.88;;;36.05;42.16
23659;BME280;12006;42.666;23.326;2023-07-13T11:59:04;-25012.53;;;36.04;44.00
23659;BME280;12006;42.666;23.326;2023-07-13T12:01:32;-25017.59;;;36.19;42.83
23659;BME280;12006;42.666;23.326;2023-07-13T12:04:02;-25015.56;;;36.13;42.29
23659;BME280;12006;42.666;23.326;2023-07-13T12:06:31;-25013.38;;;36.07;41.46
23659;BME280;12006;42.666;23.326;2023-07-13T12:09:01;-25013.88;;;36.08;42.46
23659;BME280;12006;42.666;23.326;2023-07-13T12:11:29;-25018.25;;;36.21;40.95
23659;BME280;12006;42.666;23.326;2023-07-13T12:13:55;-25017.25;;;36.18;39.54
23659;BME280;12006;42.666;23.326;2023-07-13T12:16:29;-25016.91;;;36.17;40.18
23659;BME280;12006;42.666;23.326;2023-07-13T12:18:59;-25014.22;;;36.09;40.33
23659;BME280;12006;42.666;23.326;2023-07-13T12:21:31;-25010.34;;;35.98;40.40
23659;BME280;12006;42.666;23.326;2023-07-13T12:23:57;-25011.19;;;36.00;41.41
23659;BME280;12006;42.666;23.326;2023-07-13T12:26:23;-25022.31;;;36.33;44.30
23659;BME280;12006;42.666;23.326;2023-07-13T12:28:52;-25033.06;;;36.65;42.88
23659;BME280;12006;42.666;23.326;2023-07-13T12:34:11;-25030.38;;;36.57;41.25
23659;BME280;12006;42.666;23.326;2023-07-13T12:36:49;-25026.34;;;36.45;41.93
23659;BME280;12006;42.666;23.326;2023-07-13T12:39:28;-25025.00;;;36.41;42.83
23659;BME280;12006;42.666;23.326;2023-07-13T12:44:46;-25035.44;;;36.72;42.50
23659;BME280;12006;42.666;23.326;2023-07-13T12:47:14;-25050.06;;;37.15;46.58
23659;BME280;12006;42.666;23.326;2023-07-13T12:49:43;-25076.81;;;37.94;48.30
23659;BME280;12006;42.666;23.326;2023-07-13T12:52:32;-25105.38;;;38.78;45.72
23659;BME280;12006;42.666;23.326;2023-07-13T12:55:04;-25120.50;;;39.23;43.61
23659;BME280;12006;42.666;23.326;2023-07-13T12:57:30;-25140.63;;;39.82;40.64
23659;BME280;12006;42.666;23.326;2023-07-13T12:59:56;-25171.47;;;40.74;41.04
23659;BME280;12006;42.666;23.326;2023-07-13T13:02:33;-25204.31;;;41.71;40.20
23659;BME280;12006;42.666;23.326;2023-07-13T13:05:02;-25231.75;;;42.52;40.24
23659;BME280;12006;42.666;23.326;2023-07-13T13:07:29;-25246.81;;;42.97;39.97
23659;BME280;12006;42.666;23.326;2023-07-13T13:09:55;-25278.22;;;43.90;36.11
23659;BME280;12006;42.666;23.326;2023-07-13T13:12:22;-25300.94;;;44.58;37.92
23659;BME280;12006;42.666;23.326;2023-07-13T13:14:47;-25329.97;;;45.44;36.53
23659;BME280;12006;42.666;23.326;2023-07-13T13:17:19;-25356.28;;;46.22;36.41
23659;BME280;12006;42.666;23.326;2023-07-13T13:19:45;-25373.28;;;46.73;34.83
23659;BME280;12006;42.666;23.326;2023-07-13T13:22:11;-25390.59;;;47.24;33.96
23659;BME280;12006;42.666;23.326;2023-07-13T13:24:37;-25410.22;;;47.83;34.32
23659;BME280;12006;42.666;23.326;2023-07-13T13:27:03;-25420.84;;;48.15;34.33
23659;BME280;12006;42.666;23.326;2023-07-13T13:29:31;-25429.50;;;48.41;33.01